sensor_id;sensor_type;location;lat;lon;timestamp;P1;durP1;ratioP1;P2;durP2;ratioP2
15114;SDS011;7658;51.456;7.622;2023-12-22T09:05:17;22.57;;;8.43;;
15114;SDS011;7658;51.456;7.622;2023-12-22T09:07:45;19.17;;;8.90;;
15114;SDS011;7658;51.456;7.622;2023-12-22T09:10:11;25.07;;;10.23;;
15114;SDS011;7658;51.456;7.622;2023-12-22T09:12:37;17.87;;;8.73;;
15114;SDS011;7658;51.456;7.622;2023-12-22T09:15:03;18.50;;;8.77;;
15114;SDS011;7658;51.456;7.622;2023-12-22T09:17:29;20.50;;;8.60;;
15114;SDS011;7658;51.456;7.622;2023-12-22T09:19:55;25.77;;;10.20;;
15114;SDS011;7658;51.456;7.622;2023-12-22T09:22:20;23.87;;;9.80;;
15114;SDS011;7658;51.456;7.622;2023-12-22T09:24:46;34.03;;;9.20;;
15114;SDS011;7658;51.456;7.622;2023-12-22T09:27:12;32.77;;;10.50;;
15114;SDS011;7658;51.456;7.622;2023-12-22T09:29:38;32.80;;;9.83;;
15114;SDS011;7658;51.456;7.622;2023-12-22T09:32:04;25.17;;;10.30;;
15114;SDS011;7658;51.456;7.622;2023-12-22T09:34:30;27.10;;;9.50;;
15114;SDS011;7658;51.456;7.622;2023-12-22T09:36:56;22.67;;;10.10;;
15114;SDS011;7658;51.456;7.622;2023-12-22T09:39:21;22.93;;;9.13;;
15114;SDS011;7658;51.456;7.622;2023-12-22T09:41:48;24.53;;;9.33;;
15114;SDS011;7658;51.456;7.622;2023-12-22T09:44:18;28.27;;;9.90;;
15114;SDS011;7658;51.456;7.622;2023-12-22T09:46:48;31.80;;;11.10;;
15114;SDS011;7658;51.456;7.622;2023-12-22T09:49:18;24.83;;;10.10;;
15114;SDS011;7658;51.456;7.622;2023-12-22T09:51:45;31.03;;;10.13;;
15114;SDS011;7658;51.456;7.622;2023-12-22T09:54:12;24.50;;;9.27;;
15114;SDS011;7658;51.456;7.622;2023-12-22T09:56:40;20.03;;;9.00;;
15114;SDS011;7658;51.456;7.622;2023-12-22T09:59:13;25.83;;;9.03;;
15114;SDS011;7658;51.456;7.622;2023-12-22T10:01:43;19.60;;;7.93;;
15114;SDS011;7658;51.456;7.622;2023-12-22T10:04:15;16.57;;;7.67;;
15114;SDS011;7658;51.456;7.622;2023-12-22T10:06:41;15.90;;;8.60;;
15114;SDS011;7658;51.456;7.622;2023-12-22T10:09:10;22.67;;;8.27;;
15114;SDS011;7658;51.456;7.622;2023-12-22T10:11:39;20.90;;;8.80;;
15114;SDS011;7658;51.456;7.622;2023-12-22T10:14:08;18.67;;;7.80;;
15114;SDS011;7658;51.456;7.622;2023-12-22T10:16:38;22.87;;;9.13;;
15114;SDS011;7658;51.456;7.622;2023-12-22T10:19:05;20.43;;;8.43;;
15114;SDS011;7658;51.456;7.622;2023-12-22T10:21:31;19.27;;;8.37;;
15114;SDS011;7658;51.456;7.622;2023-12-22T10:23:58;19.57;;;8.60;;
15114;SDS011;7658;51.456;7.622;2023-12-22T10:26:24;13.53;;;7.80;;
15114;SDS011;7658;51.456;7.622;2023-12-22T10:28:49;23.10;;;7.77;;
15114;SDS011;7658;51.456;7.622;2023-12-22T10:31:16;15.47;;;8.20;;
15114;SDS011;7658;51.456;7.622;2023-12-22T10:33:43;17.60;;;8.20;;
15114;SDS011;7658;51.456;7.622;2023-12-22T10:36:09;16.67;;;7.60;;
15114;SDS011;7658;51.456;7.622;2023-12-22T10:38:35;21.10;;;7.67;;
15114;SDS011;7658;51.456;7.622;2023-12-22T10:41:05;17.57;;;7.97;;
15114;SDS011;7658;51.456;7.622;2023-12-22T10:43:39;14.23;;;7.97;;
15114;SDS011;7658;51.456;7.622;2023-12-22T10:46:05;22.70;;;8.13;;
15114;SDS011;7658;51.456;7.622;2023-12-22T10:48:33;24.87;;;8.90;;
15114;SDS011;7658;51.456;7.622;2023-12-22T10:50:59;21.93;;;9.57;;
15114;SDS011;7658;51.456;7.622;2023-12-22T10:53:25;15.73;;;9.27;;
15114;SDS011;7658;51.456;7.622;2023-12-22T10:55:51;18.23;;;8.93;;
15114;SDS011;7658;51.456;7.622;2023-12-22T10:58:18;16.97;;;8.87;;
15114;SDS011;7658;51.456;7.622;2023-12-22T11:00:47;19.80;;;9.97;;
15114;SDS011;7658;51.456;7.622;2023-12-22T11:03:16;19.67;;;9.33;;
15114;SDS011;7658;51.456;7.622;2023-12-22T11:05:44;20.93;;;8.73;;
15114;SDS011;7658;51.456;7.622;2023-12-22T11:08:12;18.13;;;8.87;;
15114;SDS011;7658;51.456;7.622;2023-12-22T11:10:41;16.07;;;9.50;;
15114;SDS011;7658;51.456;7.622;2023-12-22T11:13:11;19.70;;;8.97;;
15114;SDS011;7658;51.456;7.622;2023-12-22T11:15:38;19.47;;;8.70;;
15114;SDS011;7658;51.456;7.622;2023-12-22T11:18:05;22.10;;;8.63;;
15114;SDS011;7658;51.456;7.622;2023-12-22T11:20:33;29.47;;;9.67;;
15114;SDS011;7658;51.456;7.622;2023-12-22T11:23:01;18.47;;;8.20;;
15114;SDS011;7658;51.456;7.622;2023-12-22T11:25:28;17.57;;;8.30;;
15114;SDS011;7658;51.456;7.622;2023-12-22T11:27:55;25.83;;;8.37;;
15114;SDS011;7658;51.456;7.622;2023-12-22T11:30:24;13.77;;;8.33;;
15114;SDS011;7658;51.456;7.622;2023-12-22T11:32:50;12.13;;;7.43;;
15114;SDS011;7658;51.456;7.622;2023-12-22T11:35:18;13.10;;;6.90;;
15114;SDS011;7658;51.456;7.622;2023-12-22T11:37:46;10.10;;;6.97;;
15114;SDS011;7658;51.456;7.622;2023-12-22T11:40:13;12.67;;;6.83;;
15114;SDS011;7658;51.456;7.622;2023-12-22T11:42:41;13.30;;;7.23;;
15114;SDS011;7658;51.456;7.622;2023-12-22T11:45:10;12.37;;;6.50;;
15114;SDS011;7658;51.456;7.622;2023-12-22T11:47:41;14.17;;;6.60;;
15114;SDS011;7658;51.456;7.622;2023-12-22T11:50:11;14.53;;;6.67;;
15114;SDS011;7658;51.456;7.622;2023-12-22T11:52:37;9.70;;;6.07;;
15114;SDS011;7658;51.456;7.622;2023-12-22T11:55:04;10.00;;;5.93;;
15114;SDS011;7658;51.456;7.622;2023-12-22T11:57:31;11.10;;;5.50;;
15114;SDS011;7658;51.456;7.622;2023-12-22T12:02:32;13.63;;;5.83;;
15114;SDS011;7658;51.456;7.622;2023-12-22T12:05:03;7.27;;;5.27;;
15114;SDS011;7658;51.456;7.622;2023-12-22T12:13:10;5.10;;;4.60;;
15114;SDS011;7658;51.456;7.622;2023-12-22T12:15:36;6.53;;;4.80;;
15114;SDS011;7658;51.456;7.622;2023-12-22T12:18:03;7.30;;;4.70;;
15114;SDS011;7658;51.456;7.622;2023-12-22T12:20:29;5.43;;;4.93;;
15114;SDS011;7658;51.456;7.622;2023-12-22T12:22:56;7.90;;;5.13;;
15114;SDS011;7658;51.456;7.622;2023-12-22T12:25:23;5.10;;;4.70;;
15114;SDS011;7658;51.456;7.622;2023-12-22T12:28:01;6.47;;;5.07;;
15114;SDS011;7658;51.456;7.622;2023-12-22T12:30:28;5.30;;;4.77;;
15114;SDS011;7658;51.456;7.622;2023-12-22T12:32:58;5.87;;;4.77;;
15114;SDS011;7658;51.456;7.622;2023-12-22T12:35:27;6.60;;;4.80;;
15114;SDS011;7658;51.456;7.622;2023-12-22T12:37:54;11.47;;;5.17;;
15114;SDS011;7658;51.456;7.622;2023-12-22T12:40:20;7.23;;;5.90;;
15114;SDS011;7658;51.456;7.622;2023-12-22T12:42:49;9.30;;;5.30;;
15114;SDS011;7658;51.456;7.622;2023-12-22T12:45:15;9.03;;;5.57;;
15114;SDS011;7658;51.456;7.622;2023-12-22T12:47:57;9.03;;;5.90;;
15114;SDS011;7658;51.456;7.622;2023-12-22T12:50:24;6.87;;;5.50;;
15114;SDS011;7658;51.456;7.622;2023-12-22T12:52:53;8.37;;;6.10;;
15114;SDS011;7658;51.456;7.622;2023-12-22T12:55:20;8.70;;;6.23;;
15114;SDS011;7658;51.456;7.622;2023-12-22T12:57:53;9.33;;;6.00;;
15114;SDS011;7658;51.456;7.622;2023-12-22T13:00:29;5.93;;;5.13;;
15114;SDS011;7658;51.456;7.622;2023-12-22T13:03:00;7.13;;;5.57;;
15114;SDS011;7658;51.456;7.622;2023-12-22T13:05:29;10.17;;;5.43;;
15114;SDS011;7658;51.456;7.622;2023-12-22T13:08:09;7.30;;;5.50;;
15114;SDS011;7658;51.456;7.622;2023-12-22T13:10:36;7.67;;;5.10;;
15114;SDS011;7658;51.456;7.622;2023-12-22T13:13:02;5.03;;;4.70;;
15114;SDS011;7658;51.456;7.622;2023-12-22T13:15:29;9.47;;;5.00;;
15114;SDS011;7658;51.456;7.622;2023-12-22T13:17:55;8.63;;;5.27;;
15114;SDS011;7658;51.456;7.622;2023-12-22T13:20:21;7.57;;;5.23;;
15114;SDS011;7658;51.456;7.622;2023-12-22T13:22:48;5.77;;;4.50;;
15114;SDS011;7658;51.456;7.622;2023-12-22T13:25:14;7.27;;;5.47;;
15114;SDS011;7658;51.456;7.622;2023-12-22T13:30:12;9.53;;;5.90;;
15114;SDS011;7658;51.456;7.622;2023-12-22T13:32:57;8.23;;;6.20;;
15114;SDS011;7658;51.456;7.622;2023-12-22T13:35:23;8.30;;;6.03;;
15114;SDS011;7658;51.456;7.622;2023-12-22T13:37:49;7.30;;;6.03;;
15114;SDS011;7658;51.456;7.622;2023-12-22T13:40:15;10.30;;;6.27;;
15114;SDS011;7658;51.456;7.622;2023-12-22T13:42:41;11.17;;;5.10;;
15114;SDS011;7658;51.456;7.622;2023-12-22T13:45:11;9.83;;;5.13;;
15114;SDS011;7658;51.456;7.622;2023-12-22T13:47:42;9.07;;;5.27;;
15114;SDS011;7658;51.456;7.622;2023-12-22T13:50:14;10.70;;;5.50;;
15114;SDS011;7658;51.456;7.622;2023-12-22T13:52:41;5.50;;;4.83;;
15114;SDS011;7658;51.456;7.622;2023-12-22T13:55:15;8.27;;;4.90;;
15114;SDS011;7658;51.456;7.622;2023-12-22T13:57:42;6.13;;;4.80;;
15114;SDS011;7658;51.456;7.622;2023-12-22T14:02:44;5.93;;;5.43;;
15114;SDS011;7658;51.456;7.622;2023-12-22T14:05:19;7.80;;;5.13;;
15114;SDS011;7658;51.456;7.622;2023-12-22T14:07:45;14.77;;;5.47;;
15114;SDS011;7658;51.456;7.622;2023-12-22T14:10:11;8.37;;;5.83;;
15114;SDS011;7658;51.456;7.622;2023-12-22T14:12:38;6.63;;;5.40;;
15114;SDS011;7658;51.456;7.622;2023-12-22T14:15:08;11.70;;;5.73;;
15114;SDS011;7658;51.456;7.622;2023-12-22T14:17:35;6.77;;;5.43;;
15114;SDS011;7658;51.456;7.622;2023-12-22T14:20:02;11.33;;;5.67;;
15114;SDS011;7658;51.456;7.622;2023-12-22T14:22:30;11.63;;;6.07;;
15114;SDS011;7658;51.456;7.622;2023-12-22T14:24:56;8.87;;;5.83;;
15114;SDS011;7658;51.456;7.622;2023-12-22T14:27:24;9.03;;;5.93;;
15114;SDS011;7658;51.456;7.622;2023-12-22T14:29:50;10.40;;;6.60;;
15114;SDS011;7658;51.456;7.622;2023-12-22T14:32:16;10.53;;;6.43;;
15114;SDS011;7658;51.456;7.622;2023-12-22T14:34:45;11.37;;;6.30;;
15114;SDS011;7658;51.456;7.622;2023-12-22T14:37:11;16.50;;;6.73;;
15114;SDS011;7658;51.456;7.622;2023-12-22T14:39:38;11.87;;;6.63;;
15114;SDS011;7658;51.456;7.622;2023-12-22T14:42:04;18.70;;;6.80;;
15114;SDS011;7658;51.456;7.622;2023-12-22T14:44:30;8.27;;;6.80;;
15114;SDS011;7658;51.456;7.622;2023-12-22T14:46:56;9.07;;;6.20;;
15114;SDS011;7658;51.456;7.622;2023-12-22T14:49:22;12.00;;;5.90;;
15114;SDS011;7658;51.456;7.622;2023-12-22T14:51:48;10.27;;;5.80;;
15114;SDS011;7658;51.456;7.622;2023-12-22T14:54:18;8.87;;;5.73;;
15114;SDS011;7658;51.456;7.622;2023-12-22T14:56:45;13.50;;;5.93;;
15114;SDS011;7658;51.456;7.622;2023-12-22T14:59:12;7.30;;;5.27;;
15114;SDS011;7658;51.456;7.622;2023-12-22T15:01:41;16.47;;;6.17;;
15114;SDS011;7658;51.456;7.622;2023-12-22T15:04:08;10.23;;;6.00;;
15114;SDS011;7658;51.456;7.622;2023-12-22T15:06:40;8.03;;;5.97;;
15114;SDS011;7658;51.456;7.622;2023-12-22T15:09:08;7.57;;;6.20;;
15114;SDS011;7658;51.456;7.622;2023-12-22T15:11:40;12.37;;;6.47;;
15114;SDS011;7658;51.456;7.622;2023-12-22T15:14:07;11.57;;;6.13;;
15114;SDS011;7658;51.456;7.622;2023-12-22T15:16:33;8.00;;;5.60;;
15114;SDS011;7658;51.456;7.622;2023-12-22T15:18:58;7.40;;;5.40;;
15114;SDS011;7658;51.456;7.622;2023-12-22T15:21:24;8.43;;;5.10;;
15114;SDS011;7658;51.456;7.622;2023-12-22T15:23:50;11.83;;;5.27;;
15114;SDS011;7658;51.456;7.622;2023-12-22T15:26:25;8.00;;;5.10;;
15114;SDS011;7658;51.456;7.622;2023-12-22T15:28:51;7.73;;;4.67;;
15114;SDS011;7658;51.456;7.622;2023-12-22T15:31:17;7.03;;;4.57;;
15114;SDS011;7658;51.456;7.622;2023-12-22T15:33:43;5.17;;;4.13;;
15114;SDS011;7658;51.456;7.622;2023-12-22T15:36:09;7.00;;;4.70;;
15114;SDS011;7658;51.456;7.622;2023-12-22T15:38:34;9.83;;;5.23;;
15114;SDS011;7658;51.456;7.622;2023-12-22T15:41:00;10.53;;;5.50;;
15114;SDS011;7658;51.456;7.622;2023-12-22T15:43:27;11.20;;;5.63;;
15114;SDS011;7658;51.456;7.622;2023-12-22T15:45:53;5.93;;;5.33;;
15114;SDS011;7658;51.456;7.622;2023-12-22T15:48:19;7.82;;;4.82;;
15114;SDS011;7658;51.456;7.622;2023-12-22T15:50:45;7.10;;;4.77;;
15114;SDS011;7658;51.456;7.622;2023-12-22T15:53:12;6.07;;;4.87;;
15114;SDS011;7658;51.456;7.622;2023-12-22T15:55:38;5.67;;;4.50;;
15114;SDS011;7658;51.456;7.622;2023-12-22T15:58:05;4.50;;;4.10;;
15114;SDS011;7658;51.456;7.622;2023-12-22T16:00:30;7.50;;;3.97;;
15114;SDS011;7658;51.456;7.622;2023-12-22T16:02:56;5.20;;;3.80;;
15114;SDS011;7658;51.456;7.622;2023-12-22T16:05:22;7.63;;;4.43;;
15114;SDS011;7658;51.456;7.622;2023-12-22T16:07:48;5.97;;;3.97;;
15114;SDS011;7658;51.456;7.622;2023-12-22T16:10:14;5.23;;;4.20;;
15114;SDS011;7658;51.456;7.622;2023-12-22T16:12:40;4.77;;;3.97;;
15114;SDS011;7658;51.456;7.622;2023-12-22T16:15:09;4.80;;;4.40;;
15114;SDS011;7658;51.456;7.622;2023-12-22T16:17:35;5.23;;;4.13;;
15114;SDS011;7658;51.456;7.622;2023-12-22T16:20:01;4.67;;;4.27;;
15114;SDS011;7658;51.456;7.622;2023-12-22T16:22:27;4.50;;;4.20;;
15114;SDS011;7658;51.456;7.622;2023-12-22T16:24:53;7.87;;;4.50;;
15114;SDS011;7658;51.456;7.622;2023-12-22T16:27:19;6.20;;;4.63;;
15114;SDS011;7658;51.456;7.622;2023-12-22T16:29:45;11.60;;;4.80;;
15114;SDS011;7658;51.456;7.622;2023-12-22T16:32:12;8.93;;;4.80;;
15114;SDS011;7658;51.456;7.622;2023-12-22T16:34:43;10.33;;;4.93;;
15114;SDS011;7658;51.456;7.622;2023-12-22T16:37:09;10.70;;;5.00;;
15114;SDS011;7658;51.456;7.622;2023-12-22T16:39:41;10.40;;;5.20;;
15114;SDS011;7658;51.456;7.622;2023-12-22T16:42:16;10.80;;;5.40;;
15114;SDS011;7658;51.456;7.622;2023-12-22T16:44:51;10.17;;;7.23;;
15114;SDS011;7658;51.456;7.622;2023-12-22T16:47:17;10.07;;;5.23;;
15114;SDS011;7658;51.456;7.622;2023-12-22T16:49:44;8.83;;;5.77;;
15114;SDS011;7658;51.456;7.622;2023-12-22T16:52:11;8.57;;;5.03;;
15114;SDS011;7658;51.456;7.622;2023-12-22T16:54:37;10.63;;;5.47;;
15114;SDS011;7658;51.456;7.622;2023-12-22T16:57:04;6.07;;;5.40;;
15114;SDS011;7658;51.456;7.622;2023-12-22T16:59:30;12.87;;;5.53;;
15114;SDS011;7658;51.456;7.622;2023-12-22T17:01:56;5.73;;;5.10;;
15114;SDS011;7658;51.456;7.622;2023-12-22T17:04:21;10.63;;;4.97;;
15114;SDS011;7658;51.456;7.622;2023-12-22T17:06:50;7.67;;;5.20;;
15114;SDS011;7658;51.456;7.622;2023-12-22T17:09:17;9.30;;;5.00;;
15114;SDS011;7658;51.456;7.622;2023-12-22T17:11:43;9.73;;;4.90;;
15114;SDS011;7658;51.456;7.622;2023-12-22T17:14:10;11.33;;;5.70;;
15114;SDS011;7658;51.456;7.622;2023-12-22T17:16:36;13.07;;;5.53;;
15114;SDS011;7658;51.456;7.622;2023-12-22T17:19:03;14.37;;;5.57;;
15114;SDS011;7658;51.456;7.622;2023-12-22T17:21:29;10.57;;;4.90;;
15114;SDS011;7658;51.456;7.622;2023-12-22T17:23:56;8.52;;;4.85;;
15114;SDS011;7658;51.456;7.622;2023-12-22T17:26:21;10.70;;;4.88;;
15114;SDS011;7658;51.456;7.622;2023-12-22T17:28:48;8.98;;;4.85;;
15114;SDS011;7658;51.456;7.622;2023-12-22T17:31:15;11.77;;;5.20;;
15114;SDS011;7658;51.456;7.622;2023-12-22T17:33:44;10.57;;;5.28;;
15114;SDS011;7658;51.456;7.622;2023-12-22T17:36:10;4.72;;;4.25;;
15114;SDS011;7658;51.456;7.622;2023-12-22T17:38:36;5.67;;;3.83;;
15114;SDS011;7658;51.456;7.622;2023-12-22T17:41:01;5.87;;;4.00;;
15114;SDS011;7658;51.456;7.622;2023-12-22T17:43:27;5.67;;;3.90;;
15114;SDS011;7658;51.456;7.622;2023-12-22T17:45:53;4.03;;;3.80;;
15114;SDS011;7658;51.456;7.622;2023-12-22T17:48:19;4.87;;;4.10;;
15114;SDS011;7658;51.456;7.622;2023-12-22T17:50:46;4.97;;;3.80;;
15114;SDS011;7658;51.456;7.622;2023-12-22T17:53:12;3.93;;;3.73;;
15114;SDS011;7658;51.456;7.622;2023-12-22T17:55:39;7.97;;;4.10;;
15114;SDS011;7658;51.456;7.622;2023-12-22T17:58:05;5.23;;;4.40;;
15114;SDS011;7658;51.456;7.622;2023-12-22T18:00:31;4.57;;;4.17;;
15114;SDS011;7658;51.456;7.622;2023-12-22T18:02:57;4.97;;;4.50;;
15114;SDS011;7658;51.456;7.622;2023-12-22T18:05:23;4.47;;;4.17;;
15114;SDS011;7658;51.456;7.622;2023-12-22T18:07:51;4.40;;;4.10;;
15114;SDS011;7658;51.456;7.622;2023-12-22T18:10:19;5.57;;;4.67;;
15114;SDS011;7658;51.456;7.622;2023-12-22T18:12:45;4.70;;;4.30;;
15114;SDS011;7658;51.456;7.622;2023-12-22T18:15:11;4.63;;;4.33;;
15114;SDS011;7658;51.456;7.622;2023-12-22T18:17:37;4.60;;;4.20;;
15114;SDS011;7658;51.456;7.622;2023-12-22T18:20:04;4.40;;;4.00;;
15114;SDS011;7658;51.456;7.622;2023-12-22T18:22:31;4.60;;;4.20;;
15114;SDS011;7658;51.456;7.622;2023-12-22T18:24:57;5.00;;;4.50;;
15114;SDS011;7658;51.456;7.622;2023-12-22T18:27:23;6.23;;;5.63;;
15114;SDS011;7658;51.456;7.622;2023-12-22T18:29:51;5.87;;;5.07;;
15114;SDS011;7658;51.456;7.622;2023-12-22T18:32:18;6.57;;;4.30;;
15114;SDS011;7658;51.456;7.622;2023-12-22T18:34:44;6.93;;;3.93;;
15114;SDS011;7658;51.456;7.622;2023-12-22T18:37:10;6.20;;;4.80;;
15114;SDS011;7658;51.456;7.622;2023-12-22T18:39:36;7.23;;;4.50;;
15114;SDS011;7658;51.456;7.622;2023-12-22T18:42:02;7.63;;;4.10;;
15114;SDS011;7658;51.456;7.622;2023-12-22T18:44:29;4.50;;;4.20;;
15114;SDS011;7658;51.456;7.622;2023-12-22T18:46:58;6.80;;;4.27;;
15114;SDS011;7658;51.456;7.622;2023-12-22T18:49:24;4.97;;;4.20;;
15114;SDS011;7658;51.456;7.622;2023-12-22T18:51:50;5.10;;;4.17;;
15114;SDS011;7658;51.456;7.622;2023-12-22T18:54:15;5.10;;;4.27;;
15114;SDS011;7658;51.456;7.622;2023-12-22T18:56:41;4.63;;;4.33;;
15114;SDS011;7658;51.456;7.622;2023-12-22T18:59:07;5.00;;;4.40;;
15114;SDS011;7658;51.456;7.622;2023-12-22T19:01:33;4.83;;;4.00;;
15114;SDS011;7658;51.456;7.622;2023-12-22T19:03:59;4.70;;;4.30;;
15114;SDS011;7658;51.456;7.622;2023-12-22T19:06:25;7.80;;;4.77;;
15114;SDS011;7658;51.456;7.622;2023-12-22T19:08:51;8.17;;;4.90;;
15114;SDS011;7658;51.456;7.622;2023-12-22T19:11:17;6.80;;;4.60;;
15114;SDS011;7658;51.456;7.622;2023-12-22T19:13:43;4.93;;;4.63;;
15114;SDS011;7658;51.456;7.622;2023-12-22T19:16:08;7.83;;;4.50;;
15114;SDS011;7658;51.456;7.622;2023-12-22T19:18:34;4.70;;;4.30;;
15114;SDS011;7658;51.456;7.622;2023-12-22T19:21:00;6.60;;;5.33;;
15114;SDS011;7658;51.456;7.622;2023-12-22T19:23:26;5.27;;;4.60;;
15114;SDS011;7658;51.456;7.622;2023-12-22T19:25:52;7.47;;;4.93;;
15114;SDS011;7658;51.456;7.622;2023-12-22T19:28:19;9.10;;;5.80;;
15114;SDS011;7658;51.456;7.622;2023-12-22T19:30:46;5.50;;;4.90;;
15114;SDS011;7658;51.456;7.622;2023-12-22T19:33:12;8.93;;;5.40;;
15114;SDS011;7658;51.456;7.622;2023-12-22T19:35:38;8.03;;;5.13;;
15114;SDS011;7658;51.456;7.622;2023-12-22T19:38:04;7.13;;;5.10;;
15114;SDS011;7658;51.456;7.622;2023-12-22T19:40:33;5.97;;;4.63;;
15114;SDS011;7658;51.456;7.622;2023-12-22T19:42:59;8.47;;;5.33;;
15114;SDS011;7658;51.456;7.622;2023-12-22T19:45:25;8.07;;;5.00;;
15114;SDS011;7658;51.456;7.622;2023-12-22T19:47:51;5.97;;;4.73;;
15114;SDS011;7658;51.456;7.622;2023-12-22T19:50:16;12.63;;;5.30;;
15114;SDS011;7658;51.456;7.622;2023-12-22T19:52:42;6.13;;;4.97;;
15114;SDS011;7658;51.456;7.622;2023-12-22T19:55:08;9.93;;;5.77;;
15114;SDS011;7658;51.456;7.622;2023-12-22T19:57:34;8.80;;;6.40;;
15114;SDS011;7658;51.456;7.622;2023-12-22T20:00:00;7.37;;;5.57;;
15114;SDS011;7658;51.456;7.622;2023-12-22T20:02:26;7.67;;;5.53;;
15114;SDS011;7658;51.456;7.622;2023-12-22T20:04:52;6.40;;;5.17;;
15114;SDS011;7658;51.456;7.622;2023-12-22T20:07:18;9.67;;;4.50;;
15114;SDS011;7658;51.456;7.622;2023-12-22T20:09:44;4.90;;;4.53;;
15114;SDS011;7658;51.456;7.622;2023-12-22T20:12:11;9.90;;;4.87;;
15114;SDS011;7658;51.456;7.622;2023-12-22T20:14:37;4.70;;;4.30;;
15114;SDS011;7658;51.456;7.622;2023-12-22T20:17:03;7.77;;;4.77;;
15114;SDS011;7658;51.456;7.622;2023-12-22T20:19:31;4.80;;;4.40;;
15114;SDS011;7658;51.456;7.622;2023-12-22T20:21:57;8.37;;;5.10;;
15114;SDS011;7658;51.456;7.622;2023-12-22T20:24:23;5.47;;;4.40;;
15114;SDS011;7658;51.456;7.622;2023-12-22T20:26:49;7.33;;;4.83;;
15114;SDS011;7658;51.456;7.622;2023-12-22T20:29:16;5.77;;;5.00;;
15114;SDS011;7658;51.456;7.622;2023-12-22T20:31:42;8.17;;;5.07;;
15114;SDS011;7658;51.456;7.622;2023-12-22T20:34:08;8.00;;;4.93;;
15114;SDS011;7658;51.456;7.622;2023-12-22T20:36:34;10.33;;;5.53;;
15114;SDS011;7658;51.456;7.622;2023-12-22T20:39:00;10.50;;;5.70;;
15114;SDS011;7658;51.456;7.622;2023-12-22T20:41:25;9.23;;;4.60;;
15114;SDS011;7658;51.456;7.622;2023-12-22T20:43:51;5.50;;;5.00;;
15114;SDS011;7658;51.456;7.622;2023-12-22T20:46:18;11.00;;;5.73;;
15114;SDS011;7658;51.456;7.622;2023-12-22T20:48:43;6.87;;;5.43;;
15114;SDS011;7658;51.456;7.622;2023-12-22T20:51:09;6.37;;;4.90;;
15114;SDS011;7658;51.456;7.622;2023-12-22T20:53:36;7.43;;;5.00;;
15114;SDS011;7658;51.456;7.622;2023-12-22T20:56:02;6.07;;;4.90;;
15114;SDS011;7658;51.456;7.622;2023-12-22T20:58:29;8.30;;;4.70;;
15114;SDS011;7658;51.456;7.622;2023-12-22T21:00:55;9.37;;;4.97;;
15114;SDS011;7658;51.456;7.622;2023-12-22T21:03:21;9.83;;;5.40;;
15114;SDS011;7658;51.456;7.622;2023-12-22T21:05:47;11.60;;;5.53;;
15114;SDS011;7658;51.456;7.622;2023-12-22T21:08:14;12.17;;;5.70;;
15114;SDS011;7658;51.456;7.622;2023-12-22T21:10:40;8.37;;;5.47;;
15114;SDS011;7658;51.456;7.622;2023-12-22T21:13:08;6.17;;;5.63;;
15114;SDS011;7658;51.456;7.622;2023-12-22T21:15:34;5.63;;;5.10;;
15114;SDS011;7658;51.456;7.622;2023-12-22T21:18:00;12.83;;;5.20;;
15114;SDS011;7658;51.456;7.622;2023-12-22T21:20:26;7.13;;;5.70;;
15114;SDS011;7658;51.456;7.622;2023-12-22T21:22:51;9.67;;;5.60;;
15114;SDS011;7658;51.456;7.622;2023-12-22T21:25:17;10.17;;;5.37;;
15114;SDS011;7658;51.456;7.622;2023-12-22T21:27:44;6.97;;;5.20;;
15114;SDS011;7658;51.456;7.622;2023-12-22T21:30:11;9.27;;;5.37;;
15114;SDS011;7658;51.456;7.622;2023-12-22T21:32:37;8.30;;;5.20;;
15114;SDS011;7658;51.456;7.622;2023-12-22T21:35:04;6.33;;;5.07;;
15114;SDS011;7658;51.456;7.622;2023-12-22T21:37:30;10.43;;;4.97;;
15114;SDS011;7658;51.456;7.622;2023-12-22T21:39:56;9.90;;;5.20;;
15114;SDS011;7658;51.456;7.622;2023-12-22T21:42:22;6.53;;;4.67;;
15114;SDS011;7658;51.456;7.622;2023-12-22T21:44:49;7.90;;;5.07;;
15114;SDS011;7658;51.456;7.622;2023-12-22T21:47:15;13.30;;;5.33;;
15114;SDS011;7658;51.456;7.622;2023-12-22T21:49:40;11.00;;;5.43;;
15114;SDS011;7658;51.456;7.622;2023-12-22T21:52:07;9.17;;;5.10;;
15114;SDS011;7658;51.456;7.622;2023-12-22T21:54:33;8.70;;;5.07;;
15114;SDS011;7658;51.456;7.622;2023-12-22T21:56:58;8.73;;;4.80;;
15114;SDS011;7658;51.456;7.622;2023-12-22T21:59:25;12.37;;;5.57;;
15114;SDS011;7658;51.456;7.622;2023-12-22T22:01:51;7.83;;;5.23;;
15114;SDS011;7658;51.456;7.622;2023-12-22T22:04:17;8.40;;;5.60;;
15114;SDS011;7658;51.456;7.622;2023-12-22T22:06:43;8.43;;;5.23;;
15114;SDS011;7658;51.456;7.622;2023-12-22T22:09:10;10.87;;;5.30;;
15114;SDS011;7658;51.456;7.622;2023-12-22T22:11:37;11.03;;;5.20;;
15114;SDS011;7658;51.456;7.622;2023-12-22T22:14:03;10.40;;;4.97;;
15114;SDS011;7658;51.456;7.622;2023-12-22T22:16:29;5.47;;;4.73;;
15114;SDS011;7658;51.456;7.622;2023-12-22T22:18:55;7.37;;;5.13;;
15114;SDS011;7658;51.456;7.622;2023-12-22T22:21:21;8.73;;;5.10;;
15114;SDS011;7658;51.456;7.622;2023-12-22T22:23:48;10.67;;;5.60;;
15114;SDS011;7658;51.456;7.622;2023-12-22T22:26:17;6.57;;;4.97;;
15114;SDS011;7658;51.456;7.622;2023-12-22T22:28:44;9.03;;;5.10;;
15114;SDS011;7658;51.456;7.622;2023-12-22T22:31:10;6.27;;;5.20;;
15114;SDS011;7658;51.456;7.622;2023-12-22T22:33:35;9.40;;;5.10;;
15114;SDS011;7658;51.456;7.622;2023-12-22T22:36:01;13.33;;;5.03;;
15114;SDS011;7658;51.456;7.622;2023-12-22T22:38:28;6.40;;;5.13;;
15114;SDS011;7658;51.456;7.622;2023-12-22T22:40:54;9.63;;;4.87;;
15114;SDS011;7658;51.456;7.622;2023-12-22T22:43:20;14.57;;;5.80;;
15114;SDS011;7658;51.456;7.622;2023-12-22T22:45:46;11.47;;;5.37;;
15114;SDS011;7658;51.456;7.622;2023-12-22T22:48:12;10.03;;;5.30;;
15114;SDS011;7658;51.456;7.622;2023-12-22T22:50:38;8.07;;;5.27;;
15114;SDS011;7658;51.456;7.622;2023-12-22T22:53:08;8.43;;;5.07;;
15114;SDS011;7658;51.456;7.622;2023-12-22T22:55:34;10.70;;;5.50;;
15114;SDS011;7658;51.456;7.622;2023-12-22T22:58:00;19.27;;;5.43;;
15114;SDS011;7658;51.456;7.622;2023-12-22T23:00:27;9.37;;;4.90;;
15114;SDS011;7658;51.456;7.622;2023-12-22T23:02:57;9.53;;;5.40;;
15114;SDS011;7658;51.456;7.622;2023-12-22T23:05:23;8.43;;;5.00;;
15114;SDS011;7658;51.456;7.622;2023-12-22T23:07:49;7.67;;;5.10;;
15114;SDS011;7658;51.456;7.622;2023-12-22T23:10:15;9.70;;;5.00;;
15114;SDS011;7658;51.456;7.622;2023-12-22T23:12:42;7.60;;;5.07;;
15114;SDS011;7658;51.456;7.622;2023-12-22T23:15:08;9.20;;;5.07;;
15114;SDS011;7658;51.456;7.622;2023-12-22T23:17:33;6.83;;;4.87;;
15114;SDS011;7658;51.456;7.622;2023-12-22T23:19:59;9.17;;;5.23;;
15114;SDS011;7658;51.456;7.622;2023-12-22T23:22:25;7.53;;;4.80;;
15114;SDS011;7658;51.456;7.622;2023-12-22T23:24:51;12.17;;;5.20;;
15114;SDS011;7658;51.456;7.622;2023-12-22T23:27:17;7.17;;;4.80;;
15114;SDS011;7658;51.456;7.622;2023-12-22T23:29:43;9.93;;;5.30;;
15114;SDS011;7658;51.456;7.622;2023-12-22T23:32:09;9.20;;;5.00;;
15114;SDS011;7658;51.456;7.622;2023-12-22T23:34:35;7.50;;;4.97;;
15114;SDS011;7658;51.456;7.622;2023-12-22T23:37:01;9.43;;;4.90;;
15114;SDS011;7658;51.456;7.622;2023-12-22T23:39:27;14.17;;;6.20;;
15114;SDS011;7658;51.456;7.622;2023-12-22T23:41:52;9.57;;;5.77;;
15114;SDS011;7658;51.456;7.622;2023-12-22T23:44:19;12.70;;;6.10;;
15114;SDS011;7658;51.456;7.622;2023-12-22T23:46:45;7.30;;;5.40;;
15114;SDS011;7658;51.456;7.622;2023-12-22T23:49:11;8.80;;;5.03;;
15114;SDS011;7658;51.456;7.622;2023-12-22T23:51:36;8.00;;;4.97;;
15114;SDS011;7658;51.456;7.622;2023-12-22T23:54:02;13.70;;;5.17;;
15114;SDS011;7658;51.456;7.622;2023-12-22T23:56:28;13.63;;;4.93;;
15114;SDS011;7658;51.456;7.622;2023-12-22T23:58:54;12.33;;;5.57;;
